Terminal Aerodrome Forecast
Issued by NWS Corpus Christi, TX

Home | Current Version | Previous Version | Text Only | Print | Product List | Glossary On
Versions: 1 2 3 4 5 6 7 8 9 10 11 12 13 14
647
FTUS44 KCRP 271418 AAA
TAFCRP
TAF AMD
KCRP 271418Z 2714/2812 17012KT P6SM SCT025 BKN040
      TEMPO 2714/2716 BKN025
     FM271800 14015G22KT P6SM VCSH SCT040 BKN150
     FM280200 14010KT P6SM BKN035=

USA.gov is the U.S. government's official web portal to all federal, state and local government web resources and services.